»·PEaware :: WAT169 KLAS-KDEN

WAT169 :: KLAS-KDEN

FLIGHT INFORMATION

Flight Status: Arrived
Operator: Unknown
More flights by this operator :: More flights under this callsign
Pilot: Marty P. (27464)
Aircraft: BOMBARDIER BD-100 CHALLENGER 300
(CL30)
More flights by this aircraft type
Origin: KLAS McCarran Intl
United States
Destination: KDEN Denver Intl
United States
More flights between these airports :: More routes between these airports
Route: STAAV8 DVC WOLLF CREDE3
File this flight plan on PilotEdge
Remarks:
Altitude:
(Current/Filed)
39,000ft
Speed:
(Current/Filed)
470kts
Departed: 25-Mar-20 08:23 PM
Arrived: 25-Mar-20 09:39 PM
Distance/Time
Traveled:
545nm/1:16
Distance/Time
To Go:
Arrived

Flight Plot

Page will automatically refresh every two minutes.

Flight plan parsing failed; only flown route is shown


Map Options




Map Legend


Flown Route
Filed Route
Departure Airport
Arrival Airport
Navaid (VOR, NDB)
Fix

Horizontal Profiles

Position Reports

Time Latitude Longitude Heading Altitude Ground
Speed
25-Mar-20 19:16 36.080340 -115.147213 61 2187ft 0kts
25-Mar-20 19:17 36.080340 -115.147213 61 2187ft 0kts
25-Mar-20 19:18 36.080340 -115.147213 61 2187ft 0kts
25-Mar-20 19:19 36.080340 -115.147213 61 2187ft 0kts
25-Mar-20 19:20 36.080340 -115.147213 61 2187ft 0kts
25-Mar-20 19:21 36.080340 -115.147213 61 2187ft 0kts
25-Mar-20 19:22 36.080340 -115.147213 61 2187ft 0kts
25-Mar-20 19:23 36.080340 -115.147213 61 2187ft 0kts
25-Mar-20 19:24 36.080340 -115.147213 61 2187ft 0kts
25-Mar-20 19:25 36.080340 -115.147213 61 2187ft 0kts
25-Mar-20 19:26 36.080340 -115.147213 61 2187ft 0kts
25-Mar-20 19:27 36.080340 -115.147213 61 2187ft 0kts
25-Mar-20 19:28 36.080340 -115.147213 61 2187ft 0kts
25-Mar-20 19:29 36.080340 -115.147213 61 2187ft 0kts
25-Mar-20 19:30 36.080340 -115.147213 61 2187ft 0kts
25-Mar-20 19:31 36.080340 -115.147213 61 2187ft 0kts
25-Mar-20 19:32 36.080340 -115.147213 61 2187ft 0kts
25-Mar-20 19:33 36.080340 -115.147213 61 2187ft 0kts
25-Mar-20 19:34 36.080340 -115.147213 61 2187ft 0kts
25-Mar-20 19:35 36.080340 -115.147213 61 2187ft 0kts
25-Mar-20 19:36 36.080340 -115.147213 61 2187ft 0kts
25-Mar-20 19:37 36.080340 -115.147213 61 2187ft 0kts
25-Mar-20 19:38 36.080340 -115.147213 61 2187ft 0kts
25-Mar-20 19:39 36.080340 -115.147213 61 2187ft 0kts
25-Mar-20 19:40 36.080340 -115.147213 61 2187ft 0kts
25-Mar-20 19:41 36.080340 -115.147213 61 2187ft 0kts
25-Mar-20 19:42 36.080340 -115.147213 61 2187ft 0kts
25-Mar-20 19:43 36.080340 -115.147213 61 2187ft 0kts
25-Mar-20 19:44 36.080340 -115.147213 61 2187ft 0kts
25-Mar-20 19:45 36.080340 -115.147213 61 2187ft 0kts
25-Mar-20 19:46 36.080340 -115.147213 61 2187ft 0kts
25-Mar-20 19:47 36.080340 -115.147213 61 2187ft 0kts
25-Mar-20 19:49 36.080340 -115.147213 61 2187ft 0kts
25-Mar-20 19:50 36.080340 -115.147213 61 2187ft 0kts
25-Mar-20 19:51 36.080340 -115.147213 61 2187ft 0kts
25-Mar-20 19:52 36.080340 -115.147213 61 2187ft 0kts
25-Mar-20 19:53 36.080340 -115.147213 61 2187ft 0kts
25-Mar-20 19:54 36.080340 -115.147213 61 2187ft 0kts
25-Mar-20 19:55 36.080340 -115.147213 61 2187ft 0kts
25-Mar-20 19:56 36.080340 -115.147213 61 2187ft 0kts
25-Mar-20 19:57 36.080340 -115.147213 61 2187ft 0kts
25-Mar-20 19:58 36.080340 -115.147213 61 2187ft 0kts
25-Mar-20 19:59 36.080340 -115.147213 61 2187ft 0kts
25-Mar-20 20:00 36.080340 -115.147213 61 2187ft 0kts
25-Mar-20 20:01 36.080340 -115.147213 61 2187ft 0kts
25-Mar-20 20:02 36.080340 -115.147213 61 2187ft 0kts
25-Mar-20 20:03 36.080340 -115.147213 61 2187ft 0kts
25-Mar-20 20:04 36.080340 -115.147213 61 2187ft 0kts
25-Mar-20 20:04 36.080340 -115.147213 61 2187ft 0kts
25-Mar-20 20:06 36.080340 -115.147213 61 2187ft 0kts
25-Mar-20 20:07 36.080340 -115.147213 61 2187ft 0kts
25-Mar-20 20:07 36.080340 -115.147213 61 2187ft 0kts
25-Mar-20 20:08 36.080340 -115.147213 61 2187ft 0kts
25-Mar-20 20:10 36.080340 -115.147213 61 2187ft 0kts
25-Mar-20 20:10 36.080340 -115.147213 61 2187ft 0kts
25-Mar-20 20:11 36.080340 -115.147213 61 2187ft 0kts
25-Mar-20 20:13 36.080341 -115.147211 61 2188ft 0kts
25-Mar-20 20:13 36.080139 -115.147763 91 2188ft 2kts
25-Mar-20 20:14 36.080325 -115.148093 155 2188ft 0kts
25-Mar-20 20:15 36.080324 -115.148093 155 2187ft 0kts
25-Mar-20 20:16 36.080075 -115.147954 155 2187ft 0kts
25-Mar-20 20:17 36.078431 -115.145926 95 2187ft 17kts
25-Mar-20 20:18 36.078265 -115.138855 89 2187ft 22kts
25-Mar-20 20:19 36.078274 -115.131479 89 2188ft 22kts
25-Mar-20 20:20 36.078278 -115.123716 90 2187ft 17kts
25-Mar-20 20:21 36.077501 -115.121532 129 2187ft 7kts
25-Mar-20 20:22 36.076403 -115.131641 269 2188ft 120kts
25-Mar-20 20:23 36.076723 -115.192718 265 4530ft 200kts
25-Mar-20 20:24 36.080034 -115.270442 295 8536ft 256kts
25-Mar-20 20:25 36.154538 -115.288527 26 11321ft 362kts
25-Mar-20 20:26 36.195441 -115.172335 92 14641ft 392kts
25-Mar-20 20:27 36.197876 -115.032447 95 17641ft 421kts
25-Mar-20 20:28 36.199388 -114.882666 96 18868ft 446kts
25-Mar-20 20:29 36.199986 -114.733363 101 21566ft 388kts
25-Mar-20 20:30 36.198309 -114.596890 102 23931ft 408kts
25-Mar-20 20:31 36.196565 -114.453723 103 26085ft 425kts
25-Mar-20 20:32 36.194609 -114.306993 104 28025ft 438kts
25-Mar-20 20:33 36.205243 -114.150997 93 29705ft 466kts
25-Mar-20 20:34 36.224259 -113.988872 93 31219ft 480kts
25-Mar-20 20:35 36.243847 -113.821899 93 32576ft 494kts
25-Mar-20 20:36 36.263708 -113.651044 93 33868ft 506kts
25-Mar-20 20:37 36.283727 -113.476111 92 35096ft 516kts
25-Mar-20 20:38 36.303570 -113.300869 92 36372ft 520kts
25-Mar-20 20:39 36.349456 -113.126519 69 37618ft 539kts
25-Mar-20 20:40 36.411944 -112.956536 68 38808ft 539kts
25-Mar-20 20:41 36.476079 -112.782835 68 38928ft 568kts
25-Mar-20 20:42 36.543597 -112.599058 67 38940ft 596kts
25-Mar-20 20:43 36.613687 -112.407142 67 38950ft 610kts
25-Mar-20 20:44 36.682166 -112.218491 68 38924ft 611kts
25-Mar-20 20:45 36.751471 -112.026303 68 38922ft 611kts
25-Mar-20 20:46 36.820424 -111.833899 67 38860ft 612kts
25-Mar-20 20:47 36.889112 -111.641039 67 38860ft 612kts
25-Mar-20 20:48 36.957596 -111.447521 67 38864ft 612kts
25-Mar-20 20:49 37.024809 -111.256421 68 38846ft 612kts
25-Mar-20 20:50 37.091816 -111.064598 68 38851ft 613kts
25-Mar-20 20:51 37.158228 -110.873343 68 38841ft 613kts
25-Mar-20 20:52 37.225533 -110.678286 68 38847ft 615kts
25-Mar-20 20:53 37.292848 -110.481852 68 38914ft 615kts
25-Mar-20 20:54 37.359219 -110.286936 69 38942ft 617kts
25-Mar-20 20:55 37.423052 -110.098184 69 38949ft 619kts
25-Mar-20 20:56 37.489457 -109.900468 68 38956ft 620kts
25-Mar-20 20:57 37.555927 -109.701428 68 38962ft 620kts
25-Mar-20 20:58 37.622402 -109.500895 68 38969ft 619kts
25-Mar-20 20:59 37.686995 -109.304718 69 38948ft 618kts
25-Mar-20 21:00 37.746391 -109.123044 68 38953ft 617kts
25-Mar-20 21:01 37.810330 -108.931624 61 38937ft 618kts
25-Mar-20 21:02 37.896032 -108.753063 56 38929ft 617kts
25-Mar-20 21:03 37.986162 -108.567885 55 38927ft 618kts
25-Mar-20 21:04 38.076296 -108.381671 55 38935ft 621kts
25-Mar-20 21:05 38.149959 -108.228801 56 38895ft 619kts
25-Mar-20 21:06 38.244702 -108.031037 56 38986ft 620kts
25-Mar-20 21:07 38.334236 -107.843025 56 38958ft 621kts
25-Mar-20 21:08 38.422781 -107.656006 56 38907ft 619kts
25-Mar-20 21:09 38.509382 -107.466471 57 38914ft 619kts
25-Mar-20 21:10 38.590362 -107.285661 58 38892ft 618kts
25-Mar-20 21:11 38.663801 -107.120753 57 38897ft 617kts
25-Mar-20 21:12 38.738834 -106.951384 58 38411ft 591kts
25-Mar-20 21:13 38.813902 -106.781080 58 35721ft 585kts
25-Mar-20 21:14 38.892389 -106.605937 56 32881ft 574kts
25-Mar-20 21:15 38.977131 -106.422723 57 30401ft 575kts
25-Mar-20 21:16 39.059484 -106.242320 58 27708ft 550kts
25-Mar-20 21:17 39.134806 -106.074580 58 24513ft 536kts
25-Mar-20 21:18 39.206466 -105.912278 57 22568ft 507kts
25-Mar-20 21:19 39.274585 -105.757248 57 20799ft 486kts
25-Mar-20 21:20 39.340132 -105.607531 57 19315ft 466kts
25-Mar-20 21:21 39.402485 -105.467074 52 16277ft 427kts
25-Mar-20 21:22 39.462396 -105.353939 51 16183ft 350kts
25-Mar-20 21:23 39.517247 -105.249781 52 16184ft 359kts
25-Mar-20 21:24 39.575411 -105.138758 52 16155ft 381kts
25-Mar-20 21:25 39.634005 -105.026409 52 15988ft 356kts
25-Mar-20 21:26 39.688920 -104.920478 53 15029ft 348kts
25-Mar-20 21:27 39.756601 -104.845149 359 14030ft 308kts
25-Mar-20 21:28 39.832799 -104.840378 352 12985ft 265kts
25-Mar-20 21:29 39.905645 -104.839298 354 11083ft 256kts
25-Mar-20 21:30 39.975752 -104.839670 355 9037ft 246kts
25-Mar-20 21:31 40.037209 -104.822030 67 7027ft 231kts
25-Mar-20 21:32 40.051784 -104.737307 77 7000ft 238kts
25-Mar-20 21:33 40.033286 -104.666493 147 7004ft 225kts
25-Mar-20 21:34 39.975164 -104.658741 181 6993ft 197kts
25-Mar-20 21:35 39.925810 -104.659304 180 6723ft 162kts
25-Mar-20 21:36 39.880591 -104.659882 179 5855ft 158kts
25-Mar-20 21:37 39.844182 -104.660393 180 5441ft 66kts
25-Mar-20 21:38 39.839864 -104.663686 195 5440ft 14kts
25-Mar-20 21:39 39.838448 -104.663734 180 5440ft 0kts

Navigation Log

Ident Type
Flight plan parsing failed, navigation log unavailable